Time;durP1;ratioP1;P1;durP2;ratioP2;P2;SDS_P1;SDS_P2;PMS_P1;PMS_P2;Temp;Humidity;BMP_temperature;BMP_pressure;BME280_temperature;BME280_humidity;BME280_pressure;Samples;Min_cycle;Max_cycle;Signal;HPM_P1;HPM_P2
2023/04/28 00:00:51;;;;;;;9.20;6.95;;;8.00;99.90;;;;;;6060373;23;98539;-76
2023/04/28 00:03:18;;;;;;;11.27;7.22;;;8.00;99.90;;;;;;6061048;23;98789;-76
2023/04/28 00:05:46;;;;;;;8.50;6.88;;;8.00;99.90;;;;;;6061776;23;99131;-76
2023/04/28 00:08:13;;;;;;;8.02;7.18;;;8.00;99.90;;;;;;6062319;23;98762;-76
2023/04/28 00:10:40;;;;;;;14.00;6.75;;;8.00;99.90;;;;;;6036267;23;98504;-76
2023/04/28 00:13:07;;;;;;;9.48;7.95;;;8.00;99.90;;;;;;6060702;23;99078;-76
2023/04/28 00:15:34;;;;;;;7.65;6.85;;;8.00;99.90;;;;;;6059762;23;100846;-75
2023/04/28 00:18:00;;;;;;;10.43;7.47;;;7.90;99.90;;;;;;6084025;23;111819;-76
2023/04/28 00:20:27;;;;;;;9.82;6.90;;;7.90;99.90;;;;;;6060807;23;98499;-76
2023/04/28 00:22:54;;;;;;;9.40;6.47;;;7.90;99.90;;;;;;6060622;23;99292;-76
2023/04/28 00:25:21;;;;;;;10.57;7.13;;;7.90;99.90;;;;;;6061735;23;99256;-76
2023/04/28 00:27:49;;;;;;;9.05;8.00;;;7.90;99.90;;;;;;6035523;23;102106;-76
2023/04/28 00:30:16;;;;;;;9.70;7.55;;;7.90;99.90;;;;;;6060834;23;98540;-76
2023/04/28 00:32:43;;;;;;;8.02;6.95;;;7.90;99.90;;;;;;6060645;23;97755;-76
2023/04/28 00:35:10;;;;;;;10.27;6.75;;;7.90;99.90;;;;;;6060004;23;102051;-76
2023/04/28 00:37:37;;;;;;;9.30;7.72;;;7.90;99.90;;;;;;6059744;23;101534;-76
2023/04/28 00:40:05;;;;;;;10.48;7.93;;;7.90;99.90;;;;;;6059945;23;99237;-76
2023/04/28 00:42:32;;;;;;;9.35;7.05;;;8.00;99.90;;;;;;6060274;23;98609;-76
2023/04/28 00:45:04;;;;;;;12.15;7.97;;;7.90;99.90;;;;;;6059376;23;101949;-76
2023/04/28 00:47:36;;;;;;;12.60;7.85;;;7.80;99.90;;;;;;6035855;23;101328;-76
2023/04/28 00:50:07;;;;;;;10.32;8.30;;;7.90;99.90;;;;;;6061986;23;98465;-76
2023/04/28 00:52:34;;;;;;;10.10;7.43;;;7.80;99.90;;;;;;6062831;23;98469;-76
2023/04/28 00:55:02;;;;;;;9.45;7.15;;;7.80;99.90;;;;;;6061804;23;110621;-76
2023/04/28 00:57:31;;;;;;;13.40;9.13;;;7.80;99.90;;;;;;6061484;23;101481;-76
2023/04/28 00:59:59;;;;;;;12.77;9.45;;;7.80;99.90;;;;;;6061216;23;98494;-76
2023/04/28 01:02:28;;;;;;;11.60;9.18;;;7.80;99.90;;;;;;6061534;23;99040;-76
2023/04/28 01:04:56;;;;;;;12.90;9.25;;;7.80;99.90;;;;;;6036259;23;102379;-76
2023/04/28 01:07:24;;;;;;;11.15;8.73;;;7.80;99.90;;;;;;6061052;23;101971;-75
2023/04/28 01:09:51;;;;;;;13.13;10.05;;;7.80;99.90;;;;;;6061401;23;98487;-76
2023/04/28 01:12:23;;;;;;;13.18;8.98;;;7.80;99.90;;;;;;6060727;23;98549;-76
2023/04/28 01:14:53;;;;;;;13.75;9.85;;;7.80;99.90;;;;;;6060680;23;101765;-76
2023/04/28 01:17:20;;;;;;;13.07;9.43;;;7.80;99.90;;;;;;6061002;23;101438;-76
2023/04/28 01:19:48;;;;;;;14.13;10.27;;;7.80;99.90;;;;;;6061220;23;99163;-75
2023/04/28 01:22:15;;;;;;;15.82;9.35;;;7.80;99.90;;;;;;6061094;23;97855;-75
2023/04/28 01:24:43;;;;;;;11.52;9.70;;;7.80;99.90;;;;;;6060675;23;101791;-75
2023/04/28 01:27:12;;;;;;;15.10;10.25;;;7.80;99.90;;;;;;6060870;23;101294;-76
2023/04/28 01:29:40;;;;;;;13.45;9.57;;;7.80;99.90;;;;;;6062369;23;99718;-76
2023/04/28 01:32:07;;;;;;;13.75;9.60;;;7.80;99.90;;;;;;6061453;23;98561;-76
2023/04/28 01:34:34;;;;;;;13.23;9.55;;;7.70;99.90;;;;;;6061019;23;101738;-75
2023/04/28 01:37:04;;;;;;;15.80;11.43;;;7.70;99.90;;;;;;6037381;23;101646;-75
2023/04/28 01:39:32;;;;;;;20.00;10.35;;;7.80;99.90;;;;;;6060979;23;98479;-76
2023/04/28 01:41:58;;;;;;;13.48;10.38;;;7.80;99.90;;;;;;6060432;23;98712;-75
2023/04/28 01:44:25;;;;;;;13.98;9.27;;;7.80;99.90;;;;;;6060170;23;101971;-76
2023/04/28 01:46:52;;;;;;;14.35;11.23;;;7.80;99.90;;;;;;6060817;23;107725;-75
2023/04/28 01:49:20;;;;;;;15.05;10.27;;;7.80;99.90;;;;;;6060816;23;98662;-76
2023/04/28 01:51:47;;;;;;;13.45;10.18;;;7.80;99.90;;;;;;6060618;23;99086;-76
2023/04/28 01:54:14;;;;;;;14.40;10.45;;;7.80;99.90;;;;;;6061643;23;99842;-76
2023/04/28 01:56:42;;;;;;;15.25;11.30;;;7.80;99.90;;;;;;6060125;23;101988;-75
2023/04/28 01:59:11;;;;;;;13.95;10.73;;;7.80;99.90;;;;;;6036521;23;98481;-76
2023/04/28 02:01:38;;;;;;;15.52;11.02;;;7.80;99.90;;;;;;6060619;23;98525;-75
2023/04/28 02:04:05;;;;;;;17.40;11.82;;;7.80;99.90;;;;;;6059895;23;101685;-76
2023/04/28 02:06:34;;;;;;;13.90;10.30;;;7.80;99.90;;;;;;6060014;23;100058;-75
2023/04/28 02:09:01;;;;;;;15.45;10.95;;;7.70;99.90;;;;;;6060266;23;98498;-76
2023/04/28 02:11:28;;;;;;;14.23;11.52;;;7.70;99.90;;;;;;6061098;23;98054;-76
2023/04/28 02:13:56;;;;;;;15.57;10.65;;;7.70;99.90;;;;;;6059854;23;101892;-76
2023/04/28 02:16:23;;;;;;;16.33;11.80;;;7.70;99.90;;;;;;6060143;23;101521;-76
2023/04/28 02:18:50;;;;;;;17.67;13.18;;;7.70;99.90;;;;;;6059825;23;99246;-76
2023/04/28 02:21:18;;;;;;;17.80;12.63;;;7.70;99.90;;;;;;6060536;23;98506;-76
2023/04/28 02:23:45;;;;;;;16.45;12.43;;;7.70;99.90;;;;;;6059982;23;101736;-75
2023/04/28 02:26:12;;;;;;;18.45;11.75;;;7.60;99.90;;;;;;6035698;23;101746;-76
2023/04/28 02:28:40;;;;;;;16.30;11.75;;;7.60;99.90;;;;;;6060436;23;98528;-75
2023/04/28 02:31:10;;;;;;;19.00;11.65;;;7.60;99.90;;;;;;6062282;23;98485;-76
2023/04/28 02:33:37;;;;;;;17.10;13.00;;;7.60;99.90;;;;;;6059871;23;101725;-75
2023/04/28 02:36:05;;;;;;;17.73;11.55;;;7.50;99.90;;;;;;6084890;23;101534;-76
2023/04/28 02:38:32;;;;;;;17.30;12.02;;;7.50;99.90;;;;;;6060766;23;98931;-76
2023/04/28 02:41:04;;;;;;;16.75;12.63;;;7.50;99.90;;;;;;6061978;23;98440;-76
2023/04/28 02:43:32;;;;;;;17.23;13.20;;;7.50;99.90;;;;;;6035469;23;102620;-76
2023/04/28 02:45:59;;;;;;;17.67;12.75;;;7.50;99.90;;;;;;6059751;23;102159;-76
2023/04/28 02:48:26;;;;;;;17.83;12.80;;;7.50;99.90;;;;;;6060434;23;98555;-76
2023/04/28 02:50:53;;;;;;;18.83;13.35;;;7.40;99.90;;;;;;6060169;23;98537;-76
2023/04/28 02:53:21;;;;;;;18.55;14.13;;;7.40;99.90;;;;;;6035888;23;101441;-75
2023/04/28 02:55:49;;;;;;;17.02;13.00;;;7.40;99.90;;;;;;6035714;23;99928;-76
2023/04/28 02:58:16;;;;;;;18.88;13.27;;;7.50;99.90;;;;;;6036139;23;98574;-76
2023/04/28 03:00:45;;;;;;;20.90;12.13;;;7.50;99.90;;;;;;6061039;23;98439;-75
2023/04/28 03:03:12;;;;;;;20.65;12.40;;;7.50;99.90;;;;;;6059557;23;101357;-75
2023/04/28 03:05:39;;;;;;;18.75;14.07;;;7.40;99.90;;;;;;6059898;23;101535;-76
2023/04/28 03:08:06;;;;;;;22.30;13.35;;;7.40;99.90;;;;;;6059955;23;99546;-75
2023/04/28 03:10:33;;;;;;;18.55;14.52;;;7.40;99.90;;;;;;6060494;23;98531;-75
2023/04/28 03:13:01;;;;;;;16.73;13.65;;;7.50;99.90;;;;;;6035642;23;101537;-75
2023/04/28 03:15:29;;;;;;;20.50;12.77;;;7.50;99.90;;;;;;6035418;23;101041;-76
2023/04/28 03:17:56;;;;;;;18.33;12.85;;;7.50;99.90;;;;;;6060078;23;98611;-75
2023/04/28 03:20:23;;;;;;;20.35;13.77;;;7.40;99.90;;;;;;6060249;23;98671;-75
2023/04/28 03:22:50;;;;;;;20.25;12.07;;;7.40;99.90;;;;;;6059768;23;102204;-76
2023/04/28 03:25:18;;;;;;;22.20;14.50;;;7.40;99.90;;;;;;6059998;23;101368;-76
2023/04/28 03:27:48;;;;;;;18.27;11.90;;;7.30;99.90;;;;;;6060440;23;98546;-75
2023/04/28 03:30:15;;;;;;;22.58;13.43;;;7.30;99.90;;;;;;6060035;23;98490;-76
2023/04/28 03:32:42;;;;;;;20.67;14.30;;;7.30;99.90;;;;;;6059270;23;102647;-76
2023/04/28 03:35:09;;;;;;;22.10;13.63;;;7.20;99.90;;;;;;6059487;23;102052;-76
2023/04/28 03:37:37;;;;;;;22.25;13.02;;;7.20;99.90;;;;;;6060068;23;98585;-75
2023/04/28 03:40:05;;;;;;;20.13;13.82;;;7.20;99.90;;;;;;6059872;23;98541;-76
2023/04/28 03:42:48;;;;;;;18.20;12.83;;;7.20;99.90;;;;;;6059523;23;101490;-76
2023/04/28 03:45:23;;;;;;;19.08;12.60;;;7.20;99.90;;;;;;6084281;23;101571;-76
2023/04/28 03:47:50;;;;;;;23.50;14.30;;;7.20;99.90;;;;;;6036089;23;98427;-75
2023/04/28 03:50:17;;;;;;;19.02;13.63;;;7.20;99.90;;;;;;6060492;23;97743;-75
2023/04/28 03:52:44;;;;;;;20.80;14.38;;;7.20;99.90;;;;;;6035544;23;102028;-76
2023/04/28 03:55:13;;;;;;;23.17;14.65;;;7.20;99.90;;;;;;6059713;23;98573;-76
2023/04/28 03:57:40;;;;;;;21.02;13.35;;;7.30;99.90;;;;;;6035417;23;99274;-75
2023/04/28 04:00:08;;;;;;;20.13;13.60;;;7.30;99.90;;;;;;6084458;23;98976;-75
2023/04/28 04:02:41;;;;;;;18.35;13.00;;;7.30;99.90;;;;;;6061294;23;98863;-76
2023/04/28 04:05:08;;;;;;;18.08;12.85;;;7.30;99.90;;;;;;6035104;23;101861;-76
2023/04/28 04:07:35;;;;;;;21.50;12.80;;;7.30;99.90;;;;;;6035731;23;98569;-76
2023/04/28 04:10:03;;;;;;;19.35;12.50;;;7.30;99.90;;;;;;6059492;23;98555;-76
2023/04/28 04:12:32;;;;;;;22.02;13.77;;;7.40;99.90;;;;;;6035822;23;100308;-76
2023/04/28 04:14:59;;;;;;;20.83;13.38;;;7.40;99.90;;;;;;6059926;23;101387;-75
2023/04/28 04:17:26;;;;;;;20.05;13.40;;;7.40;99.90;;;;;;6059717;23;98625;-75
2023/04/28 04:19:53;;;;;;;21.48;12.75;;;7.40;99.90;;;;;;6059928;23;98675;-75
2023/04/28 04:22:20;;;;;;;19.85;13.32;;;7.50;99.90;;;;;;6058599;23;102431;-75
2023/04/28 04:24:47;;;;;;;19.67;13.98;;;7.50;99.90;;;;;;6035350;23;102375;-76
2023/04/28 04:27:14;;;;;;;19.33;12.40;;;7.50;99.90;;;;;;6060524;23;98444;-76
2023/04/28 04:29:41;;;;;;;20.83;13.55;;;7.50;99.90;;;;;;6036907;23;98606;-76
2023/04/28 04:32:13;;;;;;;19.77;13.25;;;7.60;99.90;;;;;;6060190;23;101289;-76
2023/04/28 04:34:41;;;;;;;20.38;13.55;;;7.60;99.90;;;;;;6036411;23;101631;-76
2023/04/28 04:37:09;;;;;;;20.00;13.85;;;7.60;99.90;;;;;;6036730;23;98775;-76
2023/04/28 04:39:41;;;;;;;21.25;15.02;;;7.70;99.90;;;;;;6061650;23;97843;-75
2023/04/28 04:42:08;;;;;;;20.48;12.90;;;7.70;99.90;;;;;;6060349;23;101678;-75
2023/04/28 04:45:18;;;;;;;19.15;14.60;;;7.80;99.90;;;;;;6052399;23;99758;-75
2023/04/28 04:47:46;;;;;;;19.92;12.00;;;7.70;99.90;;;;;;6060499;23;99261;-75
2023/04/28 04:50:13;;;;;;;21.42;13.45;;;7.80;99.90;;;;;;6060549;23;98534;-76
2023/04/28 04:52:40;;;;;;;21.02;13.48;;;7.90;99.90;;;;;;6059974;23;102492;-76
2023/04/28 04:55:10;;;;;;;18.00;13.32;;;8.00;99.90;;;;;;6036171;23;101414;-76
2023/04/28 04:57:39;;;;;;;19.38;12.93;;;8.10;99.90;;;;;;6060776;23;98573;-76
2023/04/28 05:00:06;;;;;;;17.90;13.32;;;8.10;99.90;;;;;;6062788;23;98473;-75
2023/04/28 05:02:33;;;;;;;19.75;13.07;;;8.10;99.90;;;;;;6060258;23;101277;-76
2023/04/28 05:05:03;;;;;;;20.10;13.68;;;8.10;99.90;;;;;;6036937;23;101620;-76
2023/04/28 05:07:45;;;;;;;21.42;13.95;;;8.10;99.90;;;;;;6060789;23;98488;-76
2023/04/28 05:10:13;;;;;;;22.42;14.27;;;8.10;99.90;;;;;;6036509;23;98586;-76
2023/04/28 05:12:41;;;;;;;20.92;13.38;;;8.00;99.90;;;;;;6059696;23;101869;-76
2023/04/28 05:15:08;;;;;;;22.35;14.07;;;8.00;99.90;;;;;;6060450;23;102272;-76
2023/04/28 05:17:39;;;;;;;17.88;13.93;;;8.10;99.90;;;;;;6060852;23;98524;-76
2023/04/28 05:20:06;;;;;;;19.80;13.32;;;8.00;99.90;;;;;;6036790;23;98542;-76
2023/04/28 05:22:33;;;;;;;22.65;13.93;;;8.00;99.90;;;;;;6060089;23;101543;-76
2023/04/28 05:25:00;;;;;;;19.67;13.57;;;8.00;99.90;;;;;;6060366;23;101653;-76
2023/04/28 05:27:27;;;;;;;19.67;14.05;;;8.00;99.90;;;;;;6060463;23;98646;-76
2023/04/28 05:29:54;;;;;;;19.35;13.48;;;8.00;99.90;;;;;;6037359;23;98282;-76
2023/04/28 05:32:21;;;;;;;18.00;13.52;;;8.10;99.90;;;;;;6060284;23;101852;-76
2023/04/28 05:34:49;;;;;;;22.13;14.60;;;8.10;99.90;;;;;;6060264;23;101519;-76
2023/04/28 05:37:16;;;;;;;20.45;12.20;;;8.10;99.90;;;;;;6035546;23;99308;-76
2023/04/28 05:39:45;;;;;;;18.52;12.38;;;8.10;99.90;;;;;;6060645;23;98544;-76
2023/04/28 05:42:12;;;;;;;21.17;12.88;;;8.20;99.90;;;;;;6060234;23;101637;-76
2023/04/28 05:44:39;;;;;;;20.67;13.43;;;8.20;99.90;;;;;;6060288;23;102170;-76
2023/04/28 05:47:08;;;;;;;19.42;13.02;;;8.30;99.90;;;;;;6060565;23;98630;-76
2023/04/28 05:49:36;;;;;;;17.02;12.07;;;8.40;99.90;;;;;;6060632;23;99136;-76
2023/04/28 05:52:05;;;;;;;18.65;12.30;;;8.60;99.90;;;;;;6060356;23;101508;-76
2023/04/28 05:54:33;;;;;;;18.05;13.05;;;8.80;99.90;;;;;;6060457;23;101701;-76
2023/04/28 05:57:00;;;;;;;19.08;12.77;;;8.90;99.90;;;;;;6060266;23;98591;-76
2023/04/28 05:59:29;;;;;;;17.50;11.40;;;9.10;99.90;;;;;;6060463;23;99226;-76
2023/04/28 06:01:57;;;;;;;19.13;12.48;;;9.30;99.90;;;;;;6059644;23;102391;-76
2023/04/28 06:04:24;;;;;;;18.70;12.25;;;9.50;99.90;;;;;;6059732;23;102342;-76
2023/04/28 06:06:52;;;;;;;17.60;12.68;;;9.60;99.90;;;;;;6060471;23;98566;-75
2023/04/28 06:09:20;;;;;;;15.90;12.18;;;9.70;99.90;;;;;;6060334;23;98597;-75
2023/04/28 06:11:47;;;;;;;15.85;11.80;;;9.70;99.90;;;;;;6060119;23;101846;-76
2023/04/28 06:14:13;;;;;;;15.85;12.35;;;9.70;99.90;;;;;;6060115;23;101564;-76
2023/04/28 06:16:41;;;;;;;15.38;11.48;;;9.80;99.90;;;;;;6060484;23;98575;-76
2023/04/28 06:19:08;;;;;;;16.63;12.05;;;9.80;99.90;;;;;;6061003;23;97675;-76
2023/04/28 06:21:36;;;;;;;14.85;10.55;;;9.90;99.90;;;;;;6035800;23;101474;-76
2023/04/28 06:24:03;;;;;;;17.13;11.65;;;9.90;99.90;;;;;;6059959;23;101420;-76
2023/04/28 06:26:30;;;;;;;15.63;10.75;;;9.90;99.90;;;;;;6060003;23;99543;-76
2023/04/28 06:28:57;;;;;;;13.27;11.35;;;10.00;99.90;;;;;;6062278;23;98467;-76
2023/04/28 06:31:24;;;;;;;17.75;12.15;;;10.00;99.90;;;;;;6059831;23;101633;-76
2023/04/28 06:33:52;;;;;;;14.70;11.75;;;10.10;99.90;;;;;;6059853;23;101874;-76
2023/04/28 06:36:21;;;;;;;17.42;10.90;;;10.10;99.90;;;;;;6060221;23;98485;-76
2023/04/28 06:38:48;;;;;;;18.27;11.70;;;10.10;99.90;;;;;;6060490;23;98571;-76
2023/04/28 06:41:15;;;;;;;13.00;10.32;;;10.20;99.90;;;;;;6061923;23;99226;-76
2023/04/28 06:43:46;;;;;;;15.25;10.75;;;10.30;99.90;;;;;;6060264;23;101297;-76
2023/04/28 06:46:33;;;;;;;14.63;10.77;;;10.20;99.90;;;;;;6061289;23;99020;-76
2023/04/28 06:49:00;;;;;;;18.70;11.63;;;10.20;99.90;;;;;;6059834;23;98557;-76
2023/04/28 06:51:27;;;;;;;15.63;11.25;;;10.20;99.90;;;;;;6059531;23;100028;-76
2023/04/28 06:53:54;;;;;;;19.58;11.70;;;10.20;99.90;;;;;;6059611;23;102018;-76
2023/04/28 06:56:22;;;;;;;15.68;11.30;;;10.20;99.90;;;;;;6060837;23;98565;-76
2023/04/28 06:58:49;;;;;;;13.48;11.02;;;10.10;99.90;;;;;;6060408;23;98502;-76
2023/04/28 07:01:16;;;;;;;17.55;11.07;;;10.10;99.90;;;;;;6061709;23;99330;-75
2023/04/28 07:03:43;;;;;;;15.02;11.60;;;10.10;99.90;;;;;;6059933;23;99036;-76
2023/04/28 07:06:10;;;;;;;14.00;9.75;;;10.10;99.90;;;;;;6084920;23;98515;-76
2023/04/28 07:08:38;;;;;;;15.73;10.38;;;10.00;99.90;;;;;;6061141;23;97741;-76
2023/04/28 07:11:05;;;;;;;14.57;10.68;;;10.10;99.90;;;;;;6059710;23;101813;-76
2023/04/28 07:13:32;;;;;;;11.82;9.60;;;10.10;99.90;;;;;;6061254;23;99733;-76
2023/04/28 07:16:00;;;;;;;14.48;10.30;;;10.20;99.90;;;;;;6062327;23;99264;-76
2023/04/28 07:18:27;;;;;;;14.00;9.60;;;10.30;99.90;;;;;;6061773;23;98462;-76
2023/04/28 07:20:54;;;;;;;13.13;10.18;;;10.30;99.90;;;;;;6062230;23;100731;-76
2023/04/28 07:23:21;;;;;;;12.80;10.50;;;10.40;99.90;;;;;;6061179;23;98959;-76
2023/04/28 07:25:48;;;;;;;12.75;9.63;;;10.40;99.90;;;;;;6059923;23;98598;-76
2023/04/28 07:28:15;;;;;;;12.77;9.95;;;10.50;99.90;;;;;;6061329;23;98514;-76
2023/04/28 07:30:42;;;;;;;13.68;10.45;;;10.60;99.90;;;;;;6060242;23;102328;-76
2023/04/28 07:33:09;;;;;;;12.52;9.32;;;10.60;99.90;;;;;;6062030;23;99082;-75
2023/04/28 07:35:37;;;;;;;13.68;10.25;;;10.80;99.90;;;;;;6060630;23;98623;-76
2023/04/28 07:38:04;;;;;;;11.20;9.20;;;10.90;99.90;;;;;;6060304;23;99107;-76
2023/04/28 07:40:30;;;;;;;11.68;9.35;;;11.10;99.90;;;;;;6059581;23;102649;-76
2023/04/28 07:42:57;;;;;;;12.35;9.23;;;11.30;99.90;;;;;;6060609;23;99646;-76
2023/04/28 07:45:25;;;;;;;15.27;10.40;;;11.40;99.90;;;;;;6060237;23;101460;-76
2023/04/28 07:47:52;;;;;;;13.68;9.73;;;11.50;99.90;;;;;;6084550;23;98942;-76
2023/04/28 07:50:18;;;;;;;14.00;9.30;;;11.50;99.90;;;;;;6060481;23;101880;-76
2023/04/28 07:52:45;;;;;;;12.40;10.43;;;11.50;99.90;;;;;;6061536;23;99354;-76
2023/04/28 07:55:12;;;;;;;15.07;10.50;;;11.60;99.90;;;;;;6060196;23;98570;-76
2023/04/28 07:57:41;;;;;;;11.88;10.52;;;11.60;99.90;;;;;;6062156;23;97719;-75
2023/04/28 08:00:08;;;;;;;13.90;11.05;;;11.60;99.90;;;;;;6061125;23;99217;-76
2023/04/28 08:02:38;;;;;;;11.85;9.45;;;11.60;99.90;;;;;;6061032;23;99008;-76
2023/04/28 08:05:07;;;;;;;12.60;9.75;;;11.50;99.90;;;;;;6060065;23;99213;-76
2023/04/28 08:07:36;;;;;;;11.68;9.85;;;11.60;99.90;;;;;;6061990;23;98586;-76
2023/04/28 08:10:03;;;;;;;13.68;9.35;;;11.60;99.90;;;;;;6062036;23;99317;-76
2023/04/28 08:12:31;;;;;;;16.00;9.57;;;11.70;99.90;;;;;;6061436;23;108098;-76
2023/04/28 08:14:58;;;;;;;10.48;9.13;;;11.80;99.90;;;;;;6060338;23;98876;-75
2023/04/28 08:17:25;;;;;;;11.00;9.18;;;11.90;99.90;;;;;;6062207;23;98471;-76
2023/04/28 08:19:52;;;;;;;12.65;9.48;;;12.00;99.90;;;;;;6059999;23;99505;-76
2023/04/28 08:22:20;;;;;;;11.18;8.63;;;12.10;99.90;;;;;;6062383;23;98992;-76
2023/04/28 08:24:46;;;;;;;16.10;9.88;;;12.20;99.90;;;;;;6060218;23;98513;-76
2023/04/28 08:27:14;;;;;;;11.18;8.65;;;12.30;99.90;;;;;;6060326;23;98607;-76
2023/04/28 08:29:41;;;;;;;11.02;8.73;;;12.50;99.90;;;;;;6060921;23;99973;-76
2023/04/28 08:32:08;;;;;;;11.20;8.98;;;12.60;99.90;;;;;;6061526;23;99585;-76
2023/04/28 08:34:35;;;;;;;13.98;9.88;;;12.70;99.90;;;;;;6062146;23;98368;-76
2023/04/28 08:37:02;;;;;;;14.80;9.15;;;12.90;99.90;;;;;;6061871;23;98454;-76
2023/04/28 08:39:30;;;;;;;11.27;8.18;;;13.00;99.90;;;;;;6061629;23;99122;-76
2023/04/28 08:41:57;;;;;;;11.57;8.60;;;13.20;99.90;;;;;;6059482;23;101574;-76
2023/04/28 08:44:24;;;;;;;12.32;8.55;;;13.40;99.90;;;;;;6060384;23;99073;-76
2023/04/28 08:46:55;;;;;;;11.38;8.07;;;13.50;99.80;;;;;;6060293;23;97779;-76
2023/04/28 08:49:28;;;;;;;10.73;9.55;;;13.80;99.60;;;;;;6061514;23;98928;-76
2023/04/28 08:51:59;;;;;;;11.47;8.90;;;14.00;99.30;;;;;;6059612;23;102211;-76
2023/04/28 08:54:30;;;;;;;11.77;9.32;;;14.40;99.00;;;;;;6060787;23;99249;-76
2023/04/28 08:56:58;;;;;;;9.15;8.25;;;14.60;98.40;;;;;;6061789;23;98601;-76
2023/04/28 08:59:25;;;;;;;11.60;8.70;;;14.80;98.20;;;;;;6061439;23;99336;-76
2023/04/28 09:01:52;;;;;;;11.45;8.05;;;15.00;97.70;;;;;;6059611;23;98927;-76
2023/04/28 09:04:19;;;;;;;10.85;7.90;;;15.20;97.20;;;;;;6061827;23;98524;-76
2023/04/28 09:06:47;;;;;;;9.95;8.45;;;15.30;97.30;;;;;;6060157;23;98563;-76
2023/04/28 09:09:17;;;;;;;10.68;8.20;;;15.20;97.10;;;;;;6035454;23;102152;-76
2023/04/28 09:11:51;;;;;;;9.55;8.52;;;15.10;97.30;;;;;;6061459;23;100344;-76
2023/04/28 09:14:18;;;;;;;11.45;8.70;;;15.10;97.30;;;;;;6061869;23;98425;-76
2023/04/28 09:16:45;;;;;;;9.68;8.55;;;15.10;97.60;;;;;;6037064;23;98583;-76
2023/04/28 09:19:12;;;;;;;12.88;9.32;;;15.00;98.20;;;;;;6084963;23;104822;-76
2023/04/28 09:21:59;;;;;;;10.30;8.90;;;15.00;99.30;;;;;;6062727;23;99726;-76
2023/04/28 09:24:41;;;;;;;10.35;8.73;;;15.10;99.50;;;;;;6085468;23;98555;-76
2023/04/28 09:27:10;;;;;;;9.90;8.55;;;15.00;99.70;;;;;;6063215;23;98428;-76
2023/04/28 09:29:38;;;;;;;11.32;9.20;;;15.10;99.70;;;;;;6060798;23;101867;-76
2023/04/28 09:32:19;;;;;;;9.75;8.73;;;15.10;99.80;;;;;;6061079;23;99076;-76
2023/04/28 09:34:55;;;;;;;10.15;8.35;;;15.30;99.90;;;;;;6085940;23;98499;-76
2023/04/28 09:37:24;;;;;;;9.45;8.40;;;15.10;99.90;;;;;;6061974;23;97738;-77
2023/04/28 09:39:53;;;;;;;13.20;8.65;;;15.00;99.90;;;;;;6060898;23;99293;-75
2023/04/28 09:42:45;;;;;;;10.48;9.38;;;15.10;99.90;;;;;;6036549;23;100248;-75
2023/04/28 09:45:14;;;;;;;10.35;9.00;;;15.40;99.80;;;;;;6062601;23;99237;-75
2023/04/28 09:47:45;;;;;;;9.90;8.48;;;15.50;99.90;;;;;;6063258;23;98685;-75
2023/04/28 09:50:14;;;;;;;10.15;9.00;;;15.70;99.90;;;;;;6061017;23;99206;-75
2023/04/28 09:52:44;;;;;;;9.05;8.20;;;15.90;99.40;;;;;;6062603;23;99088;-75
2023/04/28 09:55:12;;;;;;;9.18;8.18;;;16.00;99.00;;;;;;6060773;23;99142;-75
2023/04/28 09:57:39;;;;;;;10.32;8.30;;;15.90;98.70;;;;;;6061352;23;98532;-75
2023/04/28 10:00:08;;;;;;;9.50;8.18;;;15.90;98.40;;;;;;6062079;23;99340;-75
2023/04/28 10:02:36;;;;;;;10.93;9.50;;;16.00;98.50;;;;;;6060985;23;101595;-74
2023/04/28 10:05:08;;;;;;;10.02;7.97;;;16.10;98.80;;;;;;6060718;23;98562;-75
2023/04/28 10:07:36;;;;;;;8.85;7.95;;;16.10;98.60;;;;;;6061019;23;98566;-74
2023/04/28 10:10:04;;;;;;;10.55;9.52;;;16.10;98.50;;;;;;6084473;23;99838;-75
2023/04/28 10:12:31;;;;;;;9.77;8.25;;;16.10;98.60;;;;;;6062398;23;99811;-75
2023/04/28 10:14:59;;;;;;;10.85;8.57;;;16.10;98.00;;;;;;6085540;23;98646;-75
2023/04/28 10:17:28;;;;;;;10.02;9.05;;;16.20;98.20;;;;;;6085929;23;98568;-75
2023/04/28 10:19:56;;;;;;;10.70;8.32;;;16.50;98.10;;;;;;6060761;23;99285;-75
2023/04/28 10:22:47;;;;;;;10.95;9.02;;;16.50;97.70;;;;;;6062445;23;98945;-77
2023/04/28 10:25:27;;;;;;;9.73;8.82;;;16.70;97.90;;;;;;6036146;23;98501;-77
2023/04/28 10:27:54;;;;;;;9.98;8.85;;;17.00;97.50;;;;;;6086025;23;97808;-77
2023/04/28 10:30:23;;;;;;;9.52;8.15;;;17.20;97.50;;;;;;6060711;23;101886;-77
2023/04/28 10:33:12;;;;;;;9.07;8.27;;;17.50;97.20;;;;;;6060588;23;101634;-75
2023/04/28 10:35:46;;;;;;;13.63;9.35;;;17.60;96.80;;;;;;6060750;23;99218;-75
2023/04/28 10:38:14;;;;;;;9.73;8.73;;;17.50;96.70;;;;;;6061094;23;98487;-75
2023/04/28 10:40:46;;;;;;;12.40;9.10;;;17.40;96.80;;;;;;6061812;23;111153;-75
2023/04/28 10:43:14;;;;;;;10.35;9.25;;;17.30;97.20;;;;;;6062257;23;98922;-75
2023/04/28 10:45:53;;;;;;;11.43;9.77;;;17.40;97.30;;;;;;6062749;23;98475;-75
2023/04/28 10:48:45;;;;;;;9.77;8.77;;;17.40;97.00;;;;;;6037624;23;99017;-75
2023/04/28 10:51:15;;;;;;;10.85;8.02;;;17.30;97.30;;;;;;6062003;23;99392;-77
2023/04/28 10:53:45;;;;;;;9.52;8.50;;;17.20;97.40;;;;;;6060795;23;102450;-77
2023/04/28 10:56:24;;;;;;;11.77;9.23;;;17.10;97.50;;;;;;6061254;23;98532;-77
2023/04/28 10:58:56;;;;;;;12.27;9.52;;;17.30;97.40;;;;;;6037364;23;99440;-74
2023/04/28 11:01:25;;;;;;;10.55;9.07;;;17.70;97.00;;;;;;6060426;23;100013;-75
2023/04/28 11:04:15;;;;;;;10.57;7.70;;;17.80;97.10;;;;;;6062185;23;99602;-74
2023/04/28 11:07:03;;;;;;;9.85;8.80;;;17.80;97.20;;;;;;6061144;23;98574;-75
2023/04/28 11:09:30;;;;;;;10.10;8.48;;;18.00;97.10;;;;;;6061127;23;98539;-75
2023/04/28 11:12:01;;;;;;;10.65;8.55;;;18.10;96.70;;;;;;6060739;23;99092;-75
2023/04/28 11:14:28;;;;;;;13.35;9.43;;;18.30;96.70;;;;;;6060740;23;101545;-75
2023/04/28 11:17:00;;;;;;;10.45;9.32;;;18.40;96.50;;;;;;6062638;23;98464;-75
2023/04/28 11:19:32;;;;;;;9.85;8.88;;;18.60;96.40;;;;;;6063030;23;98209;-75
2023/04/28 11:22:12;;;;;;;11.57;9.07;;;18.90;96.10;;;;;;6062186;23;99382;-75
2023/04/28 11:24:40;;;;;;;11.13;9.07;;;19.10;95.60;;;;;;6036546;23;103066;-75
2023/04/28 11:27:07;;;;;;;9.77;8.73;;;19.10;95.60;;;;;;6084833;23;99189;-75
2023/04/28 11:29:36;;;;;;;10.05;9.05;;;19.10;95.60;;;;;;6062591;23;98480;-75
2023/04/28 11:32:05;;;;;;;10.15;9.05;;;19.10;95.40;;;;;;6059961;23;101923;-75
2023/04/28 11:34:33;;;;;;;10.05;9.05;;;19.10;95.40;;;;;;6062203;23;98986;-75
2023/04/28 11:37:01;;;;;;;9.45;8.55;;;18.80;95.70;;;;;;6062517;23;98470;-75
2023/04/28 11:39:34;;;;;;;12.07;8.80;;;18.90;95.80;;;;;;6062550;23;99133;-75
2023/04/28 11:42:08;;;;;;;9.47;7.73;;;18.90;95.70;;;;;;6060514;23;102102;-75
2023/04/28 11:44:35;;;;;;;10.05;8.98;;;18.90;96.00;;;;;;6060883;23;99110;-75
2023/04/28 11:47:03;;;;;;;9.85;9.00;;;18.70;95.90;;;;;;6085046;23;98512;-75
2023/04/28 11:49:44;;;;;;;12.32;9.10;;;18.80;95.90;;;;;;6085310;23;98522;-75
2023/04/28 11:52:12;;;;;;;9.40;8.50;;;18.90;95.80;;;;;;6061360;23;100017;-75
2023/04/28 11:54:42;;;;;;;14.25;10.27;;;18.90;96.00;;;;;;6059676;23;100729;-75
2023/04/28 11:57:20;;;;;;;9.45;8.23;;;18.90;95.90;;;;;;6061600;23;99236;-75
2023/04/28 11:59:48;;;;;;;10.70;8.63;;;18.90;96.00;;;;;;6060970;23;98493;-75
2023/04/28 12:02:27;;;;;;;9.95;8.82;;;18.60;96.20;;;;;;6059826;23;100690;-75
2023/04/28 12:04:55;;;;;;;9.48;8.45;;;18.40;96.50;;;;;;6060092;23;101659;-75
2023/04/28 12:07:23;;;;;;;9.98;8.95;;;18.10;96.70;;;;;;6060609;23;98591;-75
2023/04/28 12:10:14;;;;;;;14.18;10.77;;;18.00;97.00;;;;;;6060960;23;97780;-75
2023/04/28 12:12:41;;;;;;;11.57;9.13;;;18.00;97.10;;;;;;6059289;23;101770;-75
2023/04/28 12:15:17;;;;;;;10.55;8.45;;;17.90;97.20;;;;;;6061620;23;99048;-75
2023/04/28 12:17:47;;;;;;;9.05;8.15;;;17.90;96.80;;;;;;6061610;23;99186;-75
2023/04/28 12:20:41;;;;;;;10.45;9.40;;;18.10;96.80;;;;;;6060560;23;98578;-75
2023/04/28 12:23:08;;;;;;;13.60;8.73;;;18.40;96.50;;;;;;6008793;23;102126;-75
2023/04/28 12:25:46;;;;;;;11.68;9.55;;;18.30;96.50;;;;;;6035869;23;100042;-75
2023/04/28 12:28:13;;;;;;;11.77;9.13;;;18.50;96.30;;;;;;6061886;23;98470;-75
2023/04/28 12:30:40;;;;;;;10.63;9.52;;;18.40;96.40;;;;;;6060130;23;100423;-75
2023/04/28 12:33:25;;;;;;;13.18;9.00;;;18.60;96.10;;;;;;6059755;23;101895;-75
2023/04/28 12:35:53;;;;;;;9.43;8.20;;;18.80;95.60;;;;;;6062045;23;99548;-75
2023/04/28 12:38:21;;;;;;;11.10;9.98;;;18.90;95.70;;;;;;6061811;23;98550;-75
2023/04/28 12:40:48;;;;;;;10.23;9.32;;;19.00;95.70;;;;;;6059509;23;98606;-75
2023/04/28 12:43:15;;;;;;;10.10;9.10;;;18.90;95.50;;;;;;6060933;23;100033;-75
2023/04/28 12:45:42;;;;;;;10.82;9.93;;;18.70;95.70;;;;;;6061435;23;99654;-75